createdAt,value
2022-10-07T00:03:01.978Z,11.18
2022-10-07T00:08:07.072Z,8.50
2022-10-07T00:13:12.096Z,9.20
2022-10-07T00:18:14.821Z,7.28
2022-10-07T00:23:17.408Z,9.18
2022-10-07T00:28:21.843Z,10.80
2022-10-07T00:33:24.688Z,7.13
2022-10-07T00:38:27.769Z,6.40
2022-10-07T00:43:32.381Z,8.38
2022-10-07T00:48:37.238Z,6.07
2022-10-07T00:53:41.169Z,8.02
2022-10-07T00:58:49.000Z,11.48
2022-10-07T01:03:52.184Z,14.05
2022-10-07T01:08:55.752Z,9.43
2022-10-07T01:14:06.064Z,10.30
2022-10-07T01:19:15.033Z,8.20
2022-10-07T01:24:23.937Z,7.55
2022-10-07T01:29:29.856Z,6.55
2022-10-07T01:34:34.586Z,9.35
2022-10-07T01:39:39.645Z,8.88
2022-10-07T01:44:45.335Z,7.20
2022-10-07T01:49:48.225Z,8.35
2022-10-07T01:55:02.273Z,6.47
2022-10-07T02:00:08.884Z,6.55
2022-10-07T02:05:14.031Z,7.18
2022-10-07T02:10:21.675Z,8.13
2022-10-07T02:15:28.495Z,7.75
2022-10-07T02:20:37.721Z,8.88
2022-10-07T02:25:47.025Z,8.65
2022-10-07T02:30:53.505Z,10.30
2022-10-07T02:35:58.097Z,9.48
2022-10-07T02:41:06.201Z,8.63
2022-10-07T02:46:14.085Z,6.47
2022-10-07T02:51:21.233Z,10.18
2022-10-07T02:56:25.691Z,11.00
2022-10-07T03:01:32.191Z,9.75
2022-10-07T03:06:36.708Z,9.85
2022-10-07T03:11:39.948Z,10.65
2022-10-07T03:16:45.006Z,11.63
2022-10-07T03:26:50.165Z,12.10
2022-10-07T03:31:54.855Z,10.07
2022-10-07T03:37:00.641Z,14.63
2022-10-07T03:42:03.417Z,12.73
2022-10-07T03:47:10.704Z,14.60
2022-10-07T03:52:14.608Z,12.60
2022-10-07T03:57:35.090Z,12.63
2022-10-07T04:02:39.412Z,15.00
2022-10-07T04:07:44.969Z,12.20
2022-10-07T04:12:49.464Z,13.80
2022-10-07T04:22:56.540Z,13.57
2022-10-07T04:28:00.022Z,12.57
2022-10-07T04:33:04.288Z,12.05
2022-10-07T04:38:10.589Z,12.20
2022-10-07T04:43:27.609Z,14.35
2022-10-07T04:48:30.883Z,13.68
2022-10-07T04:53:35.459Z,15.37
2022-10-07T04:58:38.214Z,18.13
2022-10-07T05:03:41.385Z,17.63
2022-10-07T05:08:45.907Z,19.93
2022-10-07T05:13:49.075Z,18.52
2022-10-07T05:18:51.792Z,18.52
2022-10-07T05:23:55.825Z,13.07
2022-10-07T05:28:59.112Z,12.00
2022-10-07T05:34:03.085Z,12.82
2022-10-07T05:44:09.757Z,10.27
2022-10-07T05:49:12.875Z,15.85
2022-10-07T05:54:15.777Z,19.07
2022-10-07T05:59:20.487Z,11.65
2022-10-07T06:04:26.223Z,20.75
2022-10-07T06:09:47.364Z,20.17
2022-10-07T06:14:56.310Z,22.35
2022-10-07T06:19:59.042Z,22.30
2022-10-07T06:25:02.657Z,15.02
2022-10-07T06:30:09.391Z,31.10
2022-10-07T06:35:12.034Z,24.67
2022-10-07T06:40:20.511Z,22.20
2022-10-07T06:45:24.724Z,25.92
2022-10-07T06:50:27.928Z,22.52
2022-10-07T06:55:38.050Z,23.30
2022-10-07T07:00:42.679Z,19.77
2022-10-07T07:05:46.401Z,24.92
2022-10-07T07:10:51.087Z,19.08
2022-10-07T07:15:59.131Z,19.33
2022-10-07T07:21:03.355Z,22.25
2022-10-07T07:26:06.357Z,20.98
2022-10-07T07:31:13.162Z,21.48
2022-10-07T07:36:17.043Z,22.73
2022-10-07T07:41:21.012Z,19.77
2022-10-07T07:46:26.852Z,20.05
2022-10-07T07:51:29.664Z,22.13
2022-10-07T07:56:33.056Z,18.83
2022-10-07T08:01:37.355Z,17.77
2022-10-07T08:06:40.705Z,19.38
2022-10-07T08:11:45.561Z,21.42
2022-10-07T08:16:50.499Z,20.58
2022-10-07T08:21:53.630Z,20.45
2022-10-07T08:26:56.830Z,19.23
2022-10-07T08:32:01.095Z,25.45
2022-10-07T08:37:03.820Z,20.42
2022-10-07T08:42:14.077Z,23.93
2022-10-07T08:47:24.621Z,22.67
2022-10-07T08:52:30.429Z,18.38
2022-10-07T08:57:46.979Z,23.42
2022-10-07T09:03:00.178Z,17.20
2022-10-07T09:08:06.171Z,25.90
2022-10-07T09:13:12.899Z,20.23
2022-10-07T09:18:20.792Z,20.63
2022-10-07T09:23:25.112Z,20.77
2022-10-07T09:28:30.550Z,21.63
2022-10-07T09:33:37.235Z,15.43
2022-10-07T09:38:40.641Z,17.92
2022-10-07T09:43:54.099Z,17.52
2022-10-07T09:48:59.373Z,21.23
2022-10-07T09:54:03.797Z,18.27
2022-10-07T09:59:31.164Z,18.90
2022-10-07T10:04:36.456Z,18.73
2022-10-07T10:09:39.134Z,17.33
2022-10-07T10:14:47.279Z,17.58
2022-10-07T10:19:52.358Z,15.35
2022-10-07T10:25:13.145Z,16.27
2022-10-07T10:30:20.237Z,16.65
2022-10-07T10:35:26.927Z,15.10
2022-10-07T10:40:33.894Z,17.92
2022-10-07T10:45:38.890Z,17.90
2022-10-07T10:50:52.434Z,21.42
2022-10-07T10:56:07.090Z,17.23
2022-10-07T11:01:14.193Z,17.52
2022-10-07T11:06:19.314Z,15.52
2022-10-07T11:11:23.849Z,18.67
2022-10-07T11:16:28.856Z,19.08
2022-10-07T11:21:35.245Z,13.88
2022-10-07T11:26:40.245Z,16.15
2022-10-07T11:31:46.292Z,16.27
2022-10-07T11:36:54.526Z,14.98
2022-10-07T11:42:00.022Z,15.43
2022-10-07T11:47:08.665Z,13.63
2022-10-07T11:52:21.298Z,15.57
2022-10-07T11:57:26.986Z,15.13
2022-10-07T12:02:44.141Z,13.93
2022-10-07T12:08:02.231Z,17.10
2022-10-07T12:13:23.536Z,17.90
2022-10-07T12:18:29.997Z,13.43
2022-10-07T12:23:41.521Z,15.00
2022-10-07T12:28:47.507Z,20.13
2022-10-07T12:33:56.474Z,17.20
2022-10-07T12:39:19.089Z,14.75
2022-10-07T12:44:24.565Z,16.25
2022-10-07T12:49:31.230Z,14.63
2022-10-07T12:54:35.157Z,12.98
2022-10-07T12:59:50.400Z,17.08
2022-10-07T13:05:08.132Z,14.52
2022-10-07T13:10:19.910Z,16.85
2022-10-07T13:15:30.414Z,17.35
2022-10-07T13:20:43.264Z,20.67
2022-10-07T13:25:48.119Z,20.90
2022-10-07T13:30:53.129Z,21.67
2022-10-07T13:36:07.809Z,26.83
2022-10-07T13:41:16.590Z,18.42
2022-10-07T13:46:21.155Z,19.77
2022-10-07T13:51:33.080Z,18.88
2022-10-07T13:56:42.147Z,14.52
2022-10-07T14:01:50.497Z,20.33
2022-10-07T14:06:56.119Z,16.13
2022-10-07T14:12:04.303Z,16.05
2022-10-07T14:17:18.328Z,14.35
2022-10-07T14:22:22.952Z,14.27
2022-10-07T14:27:51.862Z,18.35
2022-10-07T14:33:28.442Z,17.00
2022-10-07T14:38:31.606Z,14.32
2022-10-07T14:43:34.904Z,12.57
2022-10-07T14:48:39.496Z,14.38
2022-10-07T14:53:43.391Z,15.35
2022-10-07T14:58:46.676Z,12.95
2022-10-07T15:08:54.423Z,15.98
2022-10-07T15:13:57.262Z,14.75
2022-10-07T15:19:00.087Z,15.63
2022-10-07T15:24:04.868Z,16.30
2022-10-07T15:29:08.623Z,16.65
2022-10-07T15:34:12.262Z,17.92
2022-10-07T15:39:19.231Z,20.63
2022-10-07T15:44:23.287Z,21.38
2022-10-07T15:49:26.649Z,19.55
2022-10-07T15:59:33.398Z,23.38
2022-10-07T16:04:37.177Z,20.23
2022-10-07T16:09:40.769Z,23.10
2022-10-07T16:19:48.096Z,22.15
2022-10-07T16:24:52.109Z,20.55
2022-10-07T16:30:12.683Z,26.13
2022-10-07T16:35:17.368Z,25.48
2022-10-07T16:40:20.752Z,26.13
2022-10-07T16:45:23.869Z,25.30
2022-10-07T16:50:28.840Z,28.98
2022-10-07T16:55:32.120Z,23.52
2022-10-07T17:00:35.383Z,29.23
2022-10-07T17:05:39.609Z,25.70
2022-10-07T17:10:42.698Z,32.10
2022-10-07T17:15:50.425Z,25.23
2022-10-07T17:20:57.583Z,21.73
2022-10-07T17:26:05.233Z,28.08
2022-10-07T17:31:08.620Z,36.70
2022-10-07T17:36:13.485Z,32.03
2022-10-07T17:41:19.945Z,25.98
2022-10-07T17:46:25.738Z,25.90
2022-10-07T17:51:31.322Z,30.25
2022-10-07T17:56:34.990Z,29.10
2022-10-07T18:01:38.210Z,30.80
2022-10-07T18:06:43.307Z,26.48
2022-10-07T18:12:04.675Z,30.92
2022-10-07T18:17:09.819Z,38.72
2022-10-07T18:27:16.976Z,29.58
2022-10-07T18:32:20.637Z,32.80
2022-10-07T18:37:24.081Z,38.37
2022-10-07T18:42:28.234Z,31.20
2022-10-07T18:47:31.741Z,35.15
2022-10-07T18:52:34.768Z,41.45
2022-10-07T18:57:38.890Z,39.67
2022-10-07T19:02:44.943Z,36.40
2022-10-07T19:07:48.710Z,39.45
2022-10-07T19:18:13.858Z,33.47
2022-10-07T19:23:16.721Z,32.78
2022-10-07T19:33:25.986Z,12.93
2022-10-07T19:38:29.588Z,29.10
2022-10-07T19:43:35.199Z,31.00
2022-10-07T19:48:41.012Z,23.95
2022-10-07T19:53:47.249Z,25.52
2022-10-07T19:58:51.623Z,22.35
2022-10-07T20:03:59.114Z,26.90
2022-10-07T20:09:01.874Z,25.00
2022-10-07T20:14:06.350Z,29.10
2022-10-07T20:19:15.467Z,31.63
2022-10-07T20:24:18.518Z,30.42
2022-10-07T20:29:25.321Z,32.47
2022-10-07T20:34:29.694Z,32.10
2022-10-07T20:44:52.907Z,27.08
2022-10-07T20:49:59.532Z,29.58
2022-10-07T20:55:02.277Z,35.20
2022-10-07T21:00:16.677Z,31.52
2022-10-07T21:05:26.026Z,30.08
2022-10-07T21:15:31.542Z,19.88
2022-10-07T21:20:36.196Z,28.77
2022-10-07T21:25:39.820Z,33.92
2022-10-07T21:30:43.459Z,27.00
2022-10-07T21:35:47.477Z,28.83
2022-10-07T21:45:53.058Z,28.27
2022-10-07T21:50:57.345Z,10.93
2022-10-07T21:56:02.732Z,39.88
2022-10-07T22:01:06.274Z,25.35
2022-10-07T22:06:11.654Z,24.33
2022-10-07T22:11:15.006Z,18.65
2022-10-07T22:16:19.029Z,28.77
2022-10-07T22:21:28.815Z,24.58
2022-10-07T22:26:32.639Z,22.00
2022-10-07T22:31:41.841Z,26.73
2022-10-07T22:36:45.793Z,23.48
2022-10-07T22:41:49.710Z,24.42
2022-10-07T22:46:59.213Z,25.65
2022-10-07T22:52:03.561Z,35.70
2022-10-07T23:02:10.472Z,25.30
2022-10-07T23:07:17.988Z,27.73
2022-10-07T23:12:20.622Z,24.77
2022-10-07T23:17:23.251Z,27.13
2022-10-07T23:22:27.617Z,28.15
2022-10-07T23:27:30.197Z,25.45
2022-10-07T23:32:34.022Z,28.48
2022-10-07T23:37:38.377Z,27.00
2022-10-07T23:42:41.069Z,24.95
2022-10-07T23:47:43.987Z,23.23
2022-10-07T23:52:48.285Z,32.42
2022-10-07T23:57:51.123Z,21.17
